createdAt,value
2022-10-11T00:00:39.144Z,59.09
2022-10-11T00:03:26.944Z,62.47
2022-10-11T00:05:54.622Z,61.69
2022-10-11T00:08:22.501Z,57.33
2022-10-11T00:10:58.779Z,59.07
2022-10-11T00:13:27.138Z,61.78
2022-10-11T00:15:55.801Z,63.78
2022-10-11T00:18:24.064Z,57.60
2022-10-11T00:21:00.945Z,55.98
2022-10-11T00:23:28.483Z,58.45
2022-10-11T00:26:04.992Z,61.08
2022-10-11T00:28:33.280Z,63.24
2022-10-11T00:31:01.294Z,59.40
2022-10-11T00:33:29.231Z,55.17
2022-10-11T00:35:59.727Z,55.56
2022-10-11T00:38:27.316Z,58.52
2022-10-11T00:40:54.889Z,60.89
2022-10-11T00:43:25.594Z,62.39
2022-10-11T00:45:56.185Z,66.09
2022-10-11T00:48:29.166Z,57.94
2022-10-11T00:51:00.117Z,55.07
2022-10-11T00:53:30.410Z,57.22
2022-10-11T00:56:09.150Z,59.13
2022-10-11T00:58:38.617Z,61.71
2022-10-11T01:01:06.260Z,64.08
2022-10-11T01:03:36.867Z,61.17
2022-10-11T01:06:05.047Z,55.19
2022-10-11T01:08:33.559Z,54.79
2022-10-11T01:11:02.832Z,56.62
2022-10-11T01:13:33.079Z,60.09
2022-10-11T01:16:26.902Z,60.77
2022-10-11T01:18:57.430Z,64.36
2022-10-11T01:21:53.286Z,60.97
2022-10-11T01:24:39.415Z,55.51
2022-10-11T01:27:35.088Z,56.10
2022-10-11T01:30:20.577Z,58.70
2022-10-11T01:33:01.005Z,60.50
2022-10-11T01:35:36.524Z,64.71
2022-10-11T01:38:19.164Z,63.49
2022-10-11T01:40:52.833Z,58.04
2022-10-11T01:43:21.839Z,55.03
2022-10-11T01:45:56.412Z,55.06
2022-10-11T01:48:23.968Z,55.69
2022-10-11T01:51:01.991Z,58.01
2022-10-11T01:54:03.638Z,59.57
2022-10-11T01:56:49.827Z,60.59
2022-10-11T01:59:38.194Z,65.70
2022-10-11T02:02:24.490Z,62.30
2022-10-11T02:05:15.912Z,55.57
2022-10-11T02:08:04.003Z,53.47
2022-10-11T02:10:40.966Z,54.85
2022-10-11T02:13:27.215Z,56.13
2022-10-11T02:15:58.332Z,57.27
2022-10-11T02:18:32.075Z,58.68
2022-10-11T02:21:03.949Z,60.36
2022-10-11T02:23:36.949Z,66.24
2022-10-11T02:26:07.037Z,68.53
2022-10-11T02:28:38.045Z,63.33
2022-10-11T02:31:09.240Z,55.84
2022-10-11T02:33:43.117Z,53.40
2022-10-11T02:36:35.955Z,53.69
2022-10-11T02:39:12.034Z,54.67
2022-10-11T02:41:43.069Z,56.89
2022-10-11T02:44:19.788Z,59.18
2022-10-11T02:46:50.241Z,59.73
2022-10-11T02:49:19.840Z,60.46
2022-10-11T02:51:48.798Z,65.21
2022-10-11T02:54:17.026Z,66.84
2022-10-11T02:56:44.608Z,62.31
2022-10-11T02:59:12.573Z,57.15
2022-10-11T03:01:40.187Z,53.90
2022-10-11T03:04:07.870Z,53.80
2022-10-11T03:06:35.405Z,54.65
2022-10-11T03:09:03.447Z,56.26
2022-10-11T03:11:31.000Z,58.46
2022-10-11T03:13:58.581Z,59.08
2022-10-11T03:16:26.160Z,59.80
2022-10-11T03:18:53.719Z,61.05
2022-10-11T03:21:21.317Z,66.02
2022-10-11T03:23:49.091Z,68.04
2022-10-11T03:26:16.672Z,63.45
2022-10-11T03:28:44.492Z,58.02
2022-10-11T03:31:12.077Z,54.77
2022-10-11T03:33:39.760Z,54.80
2022-10-11T03:36:09.109Z,56.93
2022-10-11T03:38:36.868Z,57.59
2022-10-11T03:41:04.557Z,58.48
2022-10-11T03:43:32.214Z,59.34
2022-10-11T03:45:59.875Z,63.64
2022-10-11T03:48:27.599Z,67.57
2022-10-11T03:50:55.523Z,59.99
2022-10-11T03:53:23.495Z,55.43
2022-10-11T03:55:55.401Z,55.17
2022-10-11T03:58:23.670Z,56.33
2022-10-11T04:00:53.672Z,57.74
2022-10-11T04:03:21.587Z,59.15
2022-10-11T04:05:49.336Z,60.35
2022-10-11T04:08:17.009Z,65.18
2022-10-11T04:10:44.628Z,67.71
2022-10-11T04:13:12.190Z,63.88
2022-10-11T04:15:41.352Z,56.54
2022-10-11T04:18:09.491Z,53.82
2022-10-11T04:20:37.008Z,54.05
2022-10-11T04:23:04.795Z,55.45
2022-10-11T04:25:32.423Z,56.33
2022-10-11T04:28:00.031Z,57.84
2022-10-11T04:30:27.622Z,59.62
2022-10-11T04:32:55.289Z,61.28
2022-10-11T04:35:23.241Z,66.78
2022-10-11T04:37:50.822Z,65.68
2022-10-11T04:40:18.486Z,62.38
2022-10-11T04:42:46.109Z,58.38
2022-10-11T04:45:13.714Z,54.91
2022-10-11T04:47:41.649Z,55.00
2022-10-11T04:50:09.297Z,55.81
2022-10-11T04:52:37.025Z,57.28
2022-10-11T04:55:05.115Z,58.62
2022-10-11T04:57:32.680Z,59.72
2022-10-11T05:00:00.249Z,61.12
2022-10-11T05:02:27.892Z,66.40
2022-10-11T05:04:55.558Z,68.25
2022-10-11T05:07:23.199Z,64.15
2022-10-11T05:09:50.859Z,60.71
2022-10-11T05:12:18.441Z,55.49
2022-10-11T05:14:46.020Z,52.66
2022-10-11T05:17:13.531Z,53.87
2022-10-11T05:19:41.160Z,55.31
2022-10-11T05:22:09.055Z,56.93
2022-10-11T05:24:37.245Z,58.36
2022-10-11T05:27:04.792Z,59.52
2022-10-11T05:29:32.402Z,60.60
2022-10-11T05:32:00.089Z,61.47
2022-10-11T05:34:27.663Z,67.91
2022-10-11T05:36:56.698Z,69.00
2022-10-11T05:39:24.251Z,63.97
2022-10-11T05:41:52.322Z,60.93
2022-10-11T05:44:19.872Z,56.51
2022-10-11T05:46:47.528Z,54.35
2022-10-11T05:49:15.081Z,54.83
2022-10-11T05:51:42.684Z,56.29
2022-10-11T05:54:10.231Z,57.85
2022-10-11T05:56:37.769Z,59.57
2022-10-11T05:59:06.262Z,61.47
2022-10-11T06:01:33.932Z,68.53
2022-10-11T06:04:01.872Z,68.03
2022-10-11T06:06:29.417Z,63.89
2022-10-11T06:08:56.957Z,59.12
2022-10-11T06:11:27.401Z,55.42
2022-10-11T06:13:57.965Z,55.21
2022-10-11T06:16:26.856Z,56.47
2022-10-11T06:18:56.213Z,57.81
2022-10-11T06:21:24.493Z,58.38
2022-10-11T06:23:58.299Z,58.27
2022-10-11T06:26:29.379Z,60.17
2022-10-11T06:28:57.354Z,61.69
2022-10-11T06:53:08.086Z,59.28
2022-10-11T06:55:34.858Z,59.90
2022-10-11T06:58:05.857Z,59.82
2022-10-11T07:00:32.022Z,62.88
2022-10-11T07:02:58.170Z,59.39
2022-10-11T07:05:24.427Z,53.58
2022-10-11T07:07:50.551Z,52.76
2022-10-11T07:10:16.674Z,53.27
2022-10-11T07:12:44.234Z,54.20
2022-10-11T07:15:10.693Z,54.73
2022-10-11T07:17:37.019Z,55.01
2022-10-11T07:20:04.328Z,55.62
2022-10-11T07:22:30.482Z,56.77
2022-10-11T07:24:56.715Z,57.20
2022-10-11T07:27:22.969Z,59.27
2022-10-11T07:29:49.285Z,60.03
2022-10-11T07:32:15.893Z,60.76
2022-10-11T07:34:42.923Z,61.23
2022-10-11T07:37:09.154Z,62.44
2022-10-11T07:39:35.545Z,63.75
2022-10-11T07:42:01.775Z,57.37
2022-10-11T07:44:28.194Z,54.91
2022-10-11T07:46:54.302Z,56.07
2022-10-11T07:49:20.526Z,57.26
2022-10-11T07:51:46.759Z,58.08
2022-10-11T07:54:12.979Z,59.31
2022-10-11T07:56:39.538Z,59.88
2022-10-11T07:59:05.932Z,58.65
2022-10-11T08:01:32.392Z,58.05
2022-10-11T08:03:59.200Z,57.52
2022-10-11T08:06:29.541Z,56.01
2022-10-11T08:08:58.848Z,54.39
2022-10-11T08:11:26.613Z,53.89
2022-10-11T08:13:53.877Z,53.67
2022-10-11T08:16:21.152Z,53.38
2022-10-11T08:18:47.454Z,53.68
2022-10-11T08:21:15.678Z,55.07
2022-10-11T08:23:42.174Z,55.31
2022-10-11T08:26:09.375Z,56.45
2022-10-11T08:28:36.054Z,56.85
2022-10-11T08:31:03.170Z,57.65
2022-10-11T08:33:30.284Z,58.29
2022-10-11T08:35:57.695Z,58.61
2022-10-11T08:38:23.900Z,59.03
2022-10-11T08:40:54.607Z,59.02
2022-10-11T08:43:42.465Z,59.26
2022-10-11T08:46:10.136Z,59.14
2022-10-11T08:48:48.439Z,59.30
2022-10-11T08:51:26.690Z,58.91
2022-10-11T08:54:13.523Z,57.67
2022-10-11T08:56:41.175Z,55.85
2022-10-11T08:59:10.397Z,54.59
2022-10-11T09:01:41.813Z,53.80
2022-10-11T09:04:13.766Z,53.86
2022-10-11T09:06:39.847Z,52.73
2022-10-11T09:09:30.987Z,51.83
2022-10-11T09:12:31.164Z,51.65
2022-10-11T09:15:23.731Z,50.43
2022-10-11T09:18:09.771Z,49.94
2022-10-11T09:21:17.516Z,49.42
2022-10-11T09:23:52.213Z,49.36
2022-10-11T09:26:28.172Z,49.96
2022-10-11T09:29:03.578Z,51.19
2022-10-11T09:31:31.325Z,52.50
2022-10-11T09:34:10.915Z,52.99
2022-10-11T09:36:42.928Z,53.66
2022-10-11T09:39:44.487Z,54.72
2022-10-11T09:42:11.179Z,55.49
2022-10-11T09:44:40.674Z,56.03
2022-10-11T09:47:14.084Z,56.71
2022-10-11T09:49:44.115Z,56.97
2022-10-11T09:52:18.564Z,57.82
2022-10-11T09:54:59.841Z,58.24
2022-10-11T09:57:36.926Z,58.77
2022-10-11T10:00:18.285Z,58.73
2022-10-11T10:02:51.620Z,58.55
2022-10-11T10:05:36.854Z,58.33
2022-10-11T10:08:24.023Z,58.38
2022-10-11T10:11:01.120Z,58.61
2022-10-11T10:13:55.374Z,58.99
2022-10-11T10:16:24.357Z,59.11
2022-10-11T10:19:01.503Z,59.46
2022-10-11T10:21:30.622Z,59.36
2022-10-11T10:24:02.188Z,59.41
2022-10-11T10:26:29.925Z,60.14
2022-10-11T10:29:08.470Z,59.13
2022-10-11T10:31:55.397Z,57.21
2022-10-11T10:34:30.829Z,53.93
2022-10-11T10:37:02.900Z,51.37
2022-10-11T10:39:38.848Z,49.76
2022-10-11T10:42:13.179Z,46.41
2022-10-11T10:44:39.342Z,45.87
2022-10-11T10:47:47.097Z,44.94
2022-10-11T10:50:19.946Z,40.71
2022-10-11T10:53:31.392Z,37.45
2022-10-11T10:56:30.920Z,37.59
2022-10-11T10:59:09.418Z,37.83
2022-10-11T11:01:50.573Z,36.37
2022-10-11T11:04:33.466Z,35.13
2022-10-11T11:07:23.435Z,32.85
2022-10-11T11:09:58.522Z,30.89
2022-10-11T11:12:40.840Z,29.81
2022-10-11T11:15:13.836Z,28.01
2022-10-11T11:18:17.592Z,27.30
2022-10-11T11:20:49.531Z,28.70
2022-10-11T11:23:26.584Z,29.51
2022-10-11T11:26:06.609Z,30.43
2022-10-11T11:28:51.959Z,30.18
2022-10-11T11:31:30.237Z,30.66
2022-10-11T11:34:04.353Z,30.44
2022-10-11T11:36:47.856Z,30.46
2022-10-11T11:39:29.617Z,30.55
2022-10-11T11:42:01.037Z,29.18
2022-10-11T11:44:29.884Z,28.06
2022-10-11T11:47:23.545Z,27.37
2022-10-11T11:50:22.472Z,28.00
2022-10-11T11:53:09.140Z,27.93
2022-10-11T11:55:47.998Z,27.66
2022-10-11T11:58:32.529Z,27.62
2022-10-11T12:01:31.372Z,27.93
2022-10-11T12:04:04.344Z,29.15
2022-10-11T12:06:33.396Z,30.47
2022-10-11T12:09:03.325Z,31.21
2022-10-11T12:11:41.697Z,32.14
2022-10-11T12:14:20.873Z,32.11
2022-10-11T12:17:19.656Z,32.79
2022-10-11T12:20:10.351Z,33.72
2022-10-11T12:23:00.127Z,34.12
2022-10-11T12:25:26.583Z,34.58
2022-10-11T12:27:57.934Z,35.01
2022-10-11T12:30:50.083Z,35.40
2022-10-11T12:33:20.988Z,35.65
2022-10-11T12:35:53.070Z,36.36
2022-10-11T12:38:23.656Z,36.46
2022-10-11T12:41:06.091Z,37.10
2022-10-11T12:43:35.712Z,37.25
2022-10-11T12:46:27.804Z,37.92
2022-10-11T12:49:21.180Z,38.21
2022-10-11T12:51:56.378Z,38.64
2022-10-11T12:54:32.128Z,38.90
2022-10-11T12:57:12.435Z,38.95
2022-10-11T12:59:44.036Z,39.29
2022-10-11T13:02:41.832Z,39.23
2022-10-11T13:05:22.472Z,39.30
2022-10-11T13:07:50.348Z,39.27
2022-10-11T13:10:23.573Z,39.91
2022-10-11T13:12:52.524Z,40.13
2022-10-11T13:15:20.085Z,40.26
2022-10-11T13:17:48.058Z,40.02
2022-10-11T13:20:17.292Z,40.66
2022-10-11T13:22:49.506Z,40.97
2022-10-11T13:25:23.236Z,41.32
2022-10-11T13:27:52.160Z,41.95
2022-10-11T13:30:28.931Z,42.46
2022-10-11T13:32:56.034Z,42.34
2022-10-11T13:35:30.768Z,42.49
2022-10-11T13:37:57.929Z,42.43
2022-10-11T13:40:25.190Z,43.08
2022-10-11T13:42:53.596Z,43.29
2022-10-11T13:45:32.028Z,43.11
2022-10-11T13:47:58.752Z,43.01
2022-10-11T13:50:34.684Z,43.24
2022-10-11T13:53:23.237Z,43.53
2022-10-11T13:55:58.328Z,43.49
2022-10-11T13:58:31.604Z,43.77
2022-10-11T14:01:02.017Z,44.05
2022-10-11T14:03:41.761Z,44.64
2022-10-11T14:06:09.548Z,44.58
2022-10-11T14:08:48.924Z,44.68
2022-10-11T14:11:32.137Z,45.00
2022-10-11T14:13:59.090Z,45.14
2022-10-11T14:16:25.194Z,45.45
2022-10-11T14:19:07.396Z,46.03
2022-10-11T14:21:45.828Z,45.83
2022-10-11T14:24:13.768Z,46.35
2022-10-11T14:26:43.347Z,46.69
2022-10-11T14:29:33.396Z,47.51
2022-10-11T14:32:05.700Z,47.05
2022-10-11T14:34:33.643Z,47.47
2022-10-11T14:37:07.465Z,47.73
2022-10-11T14:39:34.560Z,47.45
2022-10-11T14:42:00.962Z,47.59
2022-10-11T14:44:28.746Z,48.01
2022-10-11T14:46:55.178Z,48.12
2022-10-11T14:49:27.028Z,48.36
2022-10-11T14:51:56.037Z,48.38
2022-10-11T14:54:24.560Z,48.55
2022-10-11T14:56:55.461Z,48.53
2022-10-11T14:59:26.444Z,48.74
2022-10-11T15:01:54.870Z,48.91
2022-10-11T15:04:27.032Z,49.15
2022-10-11T15:06:56.575Z,49.32
2022-10-11T15:09:28.314Z,49.45
2022-10-11T15:11:55.377Z,49.99
2022-10-11T15:14:23.761Z,49.99
2022-10-11T15:19:53.378Z,52.04
2022-10-11T15:22:20.704Z,52.02
2022-10-11T15:24:51.377Z,52.72
2022-10-11T15:27:18.253Z,53.28
2022-10-11T15:29:44.409Z,53.76
2022-10-11T15:32:10.718Z,53.83
2022-10-11T15:34:36.939Z,54.15
2022-10-11T15:37:03.469Z,54.85
2022-10-11T15:39:32.273Z,55.19
2022-10-11T15:42:01.867Z,55.48
2022-10-11T15:44:28.970Z,55.98
2022-10-11T15:46:59.846Z,56.59
2022-10-11T15:49:26.529Z,57.06
2022-10-11T15:51:52.833Z,57.45
2022-10-11T15:54:26.993Z,57.52
2022-10-11T15:56:53.582Z,58.39
2022-10-11T15:59:19.986Z,59.04
2022-10-11T16:01:46.504Z,59.31
2022-10-11T16:04:12.911Z,59.56
2022-10-11T16:06:40.295Z,60.01
2022-10-11T16:09:06.483Z,60.36
2022-10-11T16:11:37.674Z,60.70
2022-10-11T16:14:03.934Z,61.21
2022-10-11T16:16:30.097Z,66.17
2022-10-11T16:18:56.315Z,69.30
2022-10-11T16:21:23.850Z,66.21
2022-10-11T16:23:52.581Z,62.66
2022-10-11T16:26:21.390Z,57.37
2022-10-11T16:28:48.295Z,52.42
2022-10-11T16:31:19.427Z,51.07
2022-10-11T16:33:46.706Z,51.20
2022-10-11T16:36:34.611Z,51.74
2022-10-11T16:39:07.892Z,52.32
2022-10-11T16:41:34.627Z,53.23
2022-10-11T16:44:01.044Z,53.98
2022-10-11T16:46:29.892Z,54.71
2022-10-11T16:48:56.455Z,55.37
2022-10-11T16:51:23.579Z,56.49
2022-10-11T16:53:51.286Z,57.26
2022-10-11T16:56:19.835Z,57.99
2022-10-11T16:58:46.637Z,58.64
2022-10-11T17:01:13.225Z,59.48
2022-10-11T17:03:39.432Z,60.22
2022-10-11T17:06:06.744Z,60.97
2022-10-11T17:08:34.536Z,66.17
2022-10-11T17:11:02.253Z,70.08
2022-10-11T17:13:28.620Z,66.79
2022-10-11T17:15:54.772Z,63.18
2022-10-11T17:18:20.976Z,58.55
2022-10-11T17:20:47.390Z,54.09
2022-10-11T17:23:13.966Z,53.07
2022-10-11T17:25:44.707Z,53.18
2022-10-11T17:28:11.765Z,53.97
2022-10-11T17:30:41.023Z,54.94
2022-10-11T17:33:07.872Z,55.60
2022-10-11T17:35:34.098Z,56.81
2022-10-11T17:38:05.713Z,57.94
2022-10-11T17:40:32.524Z,58.28
2022-10-11T17:42:58.766Z,59.22
2022-10-11T17:45:25.005Z,60.01
2022-10-11T17:47:51.213Z,60.36
2022-10-11T17:50:17.485Z,61.28
2022-10-11T17:52:43.887Z,66.93
2022-10-11T17:55:10.901Z,70.15
2022-10-11T17:57:37.050Z,66.23
2022-10-11T18:00:06.214Z,63.66
2022-10-11T18:02:40.577Z,61.71
2022-10-11T18:05:08.061Z,57.31
2022-10-11T18:07:36.238Z,53.30
2022-10-11T18:10:02.687Z,52.34
2022-10-11T18:12:29.469Z,52.72
2022-10-11T18:14:55.628Z,53.44
2022-10-11T18:17:23.473Z,54.33
2022-10-11T18:19:50.100Z,55.35
2022-10-11T18:22:17.282Z,56.19
2022-10-11T18:24:43.450Z,57.10
2022-10-11T18:27:11.157Z,58.33
2022-10-11T18:29:37.462Z,59.36
2022-10-11T18:32:03.774Z,60.18
2022-10-11T18:34:30.070Z,61.12
2022-10-11T18:36:57.708Z,66.55
2022-10-11T18:39:23.989Z,69.91
2022-10-11T18:41:51.590Z,66.60
2022-10-11T18:44:17.712Z,63.41
2022-10-11T18:46:44.537Z,61.04
2022-10-11T18:49:12.997Z,56.66
2022-10-11T18:51:40.932Z,53.27
2022-10-11T18:54:09.773Z,52.69
2022-10-11T18:56:36.290Z,53.33
2022-10-11T18:59:04.695Z,54.10
2022-10-11T19:01:37.455Z,54.85
2022-10-11T19:04:05.797Z,55.89
2022-10-11T19:06:35.029Z,57.11
2022-10-11T19:09:06.328Z,57.92
2022-10-11T19:11:32.972Z,59.02
2022-10-11T19:14:06.265Z,60.29
2022-10-11T19:19:53.701Z,70.40
2022-10-11T19:22:21.416Z,69.19
2022-10-11T19:24:49.088Z,65.41
2022-10-11T19:27:16.837Z,62.32
2022-10-11T19:29:44.391Z,57.42
2022-10-11T19:32:12.085Z,53.59
2022-10-11T19:34:39.588Z,52.77
2022-10-11T19:37:07.715Z,53.18
2022-10-11T19:39:35.336Z,53.89
2022-10-11T19:42:04.931Z,54.68
2022-10-11T19:44:37.119Z,55.38
2022-10-11T19:47:07.403Z,54.35
2022-10-11T19:49:35.102Z,56.81
2022-10-11T19:52:03.885Z,58.61
2022-10-11T19:54:32.208Z,59.55
2022-10-11T19:57:05.303Z,60.34
2022-10-11T19:59:40.169Z,61.31
2022-10-11T20:02:10.359Z,67.79
2022-10-11T20:04:51.982Z,70.81
2022-10-11T20:07:21.108Z,67.09
2022-10-11T20:09:49.055Z,63.48
2022-10-11T20:12:19.667Z,61.33
2022-10-11T20:14:47.549Z,56.84
2022-10-11T20:19:52.964Z,52.58
2022-10-11T20:22:24.000Z,52.82
2022-10-11T20:24:51.964Z,53.86
2022-10-11T20:27:21.360Z,54.60
2022-10-11T20:29:53.065Z,55.38
2022-10-11T20:32:20.685Z,56.78
2022-10-11T20:34:48.847Z,58.18
2022-10-11T20:37:16.751Z,58.95
2022-10-11T20:39:44.419Z,59.84
2022-10-11T20:42:12.104Z,60.79
2022-10-11T20:44:39.743Z,66.37
2022-10-11T20:47:08.664Z,70.81
2022-10-11T20:49:36.553Z,67.05
2022-10-11T20:52:04.544Z,63.75
2022-10-11T20:54:34.224Z,60.92
2022-10-11T20:57:01.884Z,56.50
2022-10-11T20:59:29.553Z,53.04
2022-10-11T21:01:57.175Z,52.38
2022-10-11T21:04:24.696Z,52.73
2022-10-11T21:06:52.395Z,53.71
2022-10-11T21:09:20.024Z,55.14
2022-10-11T21:11:47.589Z,56.12
2022-10-11T21:14:15.204Z,56.97
2022-10-11T21:16:43.019Z,57.65
2022-10-11T21:19:13.986Z,59.08
2022-10-11T21:21:42.077Z,59.90
2022-10-11T21:24:09.856Z,60.63
2022-10-11T21:26:37.497Z,66.01
2022-10-11T21:29:05.116Z,70.92
2022-10-11T21:31:34.333Z,67.23
2022-10-11T21:34:04.942Z,64.15
2022-10-11T21:36:32.481Z,61.71
2022-10-11T21:39:00.028Z,57.38
2022-10-11T21:41:30.129Z,53.49
2022-10-11T21:43:58.090Z,52.58
2022-10-11T21:46:54.178Z,53.05
2022-10-11T21:49:16.623Z,53.69
2022-10-11T21:51:44.333Z,55.27
2022-10-11T21:54:11.892Z,55.95
2022-10-11T21:56:39.541Z,57.14
2022-10-11T21:59:11.157Z,58.05
2022-10-11T22:01:41.019Z,59.21
2022-10-11T22:04:09.236Z,60.37
2022-10-11T22:06:38.053Z,65.46
2022-10-11T22:09:06.818Z,70.48
2022-10-11T22:11:35.192Z,67.24
2022-10-11T22:14:02.999Z,63.90
2022-10-11T22:16:30.902Z,61.51
2022-10-11T22:19:00.014Z,57.18
2022-10-11T22:21:27.791Z,53.38
2022-10-11T22:23:55.401Z,52.72
2022-10-11T22:26:30.644Z,53.39
2022-10-11T22:28:59.922Z,54.21
2022-10-11T22:31:28.587Z,54.98
2022-10-11T22:33:59.712Z,56.11
2022-10-11T22:36:30.445Z,56.94
2022-10-11T22:38:58.958Z,57.83
2022-10-11T22:41:26.654Z,58.95
2022-10-11T22:43:54.354Z,60.37
2022-10-11T22:46:21.964Z,65.97
2022-10-11T22:48:49.642Z,70.73
2022-10-11T22:51:17.247Z,66.69
2022-10-11T22:53:45.140Z,64.06
2022-10-11T22:56:13.119Z,61.33
2022-10-11T22:58:40.831Z,56.68
2022-10-11T23:01:14.314Z,53.11
2022-10-11T23:03:42.771Z,52.53
2022-10-11T23:06:10.453Z,53.32
2022-10-11T23:08:38.233Z,54.15
2022-10-11T23:11:07.533Z,55.10
2022-10-11T23:13:35.414Z,56.06
2022-10-11T23:16:11.333Z,57.14
2022-10-11T23:18:39.101Z,58.09
2022-10-11T23:21:08.004Z,59.81
2022-10-11T23:23:35.941Z,60.77
2022-10-11T23:26:07.177Z,66.76
2022-10-11T23:28:35.256Z,70.67
2022-10-11T23:31:11.983Z,66.75
2022-10-11T23:33:40.052Z,64.09
2022-10-11T23:36:15.159Z,61.34
2022-10-11T23:38:43.040Z,56.26
2022-10-11T23:41:11.540Z,52.65
2022-10-11T23:43:39.187Z,51.71
2022-10-11T23:46:06.820Z,52.13
2022-10-11T23:48:34.499Z,53.01
2022-10-11T23:51:02.176Z,53.80
2022-10-11T23:53:29.894Z,55.14
2022-10-11T23:55:57.621Z,56.00
2022-10-11T23:58:26.303Z,57.20
